sensor_id;sensor_type;location;lat;lon;timestamp;pressure;altitude;pressure_sealevel;temperature;humidity
20930;BME280;21895;47.072;15.132;2024-01-27T00:00:20;97473.00;;;9.78;38.53
20930;BME280;21895;47.072;15.132;2024-01-27T00:02:47;97478.00;;;9.75;38.13
20930;BME280;21895;47.072;15.132;2024-01-27T00:05:14;97470.00;;;9.77;37.25
20930;BME280;21895;47.072;15.132;2024-01-27T00:07:40;97459.00;;;9.80;35.79
20930;BME280;21895;47.072;15.132;2024-01-27T00:10:08;97490.00;;;9.62;36.33
20930;BME280;21895;47.072;15.132;2024-01-27T00:12:34;97477.00;;;9.58;36.92
20930;BME280;21895;47.072;15.132;2024-01-27T00:15:01;97480.00;;;9.73;36.01
20930;BME280;21895;47.072;15.132;2024-01-27T00:17:27;97487.00;;;9.74;35.82
20930;BME280;21895;47.072;15.132;2024-01-27T00:19:54;97494.00;;;9.72;36.73
20930;BME280;21895;47.072;15.132;2024-01-27T00:22:21;97490.00;;;9.49;36.29
20930;BME280;21895;47.072;15.132;2024-01-27T00:24:48;97486.00;;;9.32;38.11
20930;BME280;21895;47.072;15.132;2024-01-27T00:27:14;97504.00;;;8.85;40.59
20930;BME280;21895;47.072;15.132;2024-01-27T00:29:41;97504.00;;;8.44;41.20
20930;BME280;21895;47.072;15.132;2024-01-27T00:32:08;97513.00;;;8.11;41.23
20930;BME280;21895;47.072;15.132;2024-01-27T00:34:34;97505.00;;;7.84;42.36
20930;BME280;21895;47.072;15.132;2024-01-27T00:37:01;97493.00;;;7.99;42.01
20930;BME280;21895;47.072;15.132;2024-01-27T00:39:27;97492.00;;;8.16;40.15
20930;BME280;21895;47.072;15.132;2024-01-27T00:41:54;97497.00;;;8.18;38.72
20930;BME280;21895;47.072;15.132;2024-01-27T00:44:22;97495.00;;;8.46;37.94
20930;BME280;21895;47.072;15.132;2024-01-27T00:46:48;97510.00;;;8.56;36.95
20930;BME280;21895;47.072;15.132;2024-01-27T00:49:15;97501.00;;;8.67;37.19
20930;BME280;21895;47.072;15.132;2024-01-27T00:51:42;97511.00;;;8.73;37.19
20930;BME280;21895;47.072;15.132;2024-01-27T00:54:08;97509.00;;;8.62;38.04
20930;BME280;21895;47.072;15.132;2024-01-27T00:56:35;97517.00;;;8.68;37.22
20930;BME280;21895;47.072;15.132;2024-01-27T00:59:02;97514.00;;;8.63;36.98
20930;BME280;21895;47.072;15.132;2024-01-27T01:01:28;97525.00;;;8.85;35.66
20930;BME280;21895;47.072;15.132;2024-01-27T01:03:55;97514.00;;;8.95;36.32
20930;BME280;21895;47.072;15.132;2024-01-27T01:06:23;97525.00;;;8.80;36.48
20930;BME280;21895;47.072;15.132;2024-01-27T01:08:49;97514.00;;;8.68;37.08
20930;BME280;21895;47.072;15.132;2024-01-27T01:11:16;97531.00;;;8.64;36.85
20930;BME280;21895;47.072;15.132;2024-01-27T01:13:43;97529.00;;;8.47;37.91
20930;BME280;21895;47.072;15.132;2024-01-27T01:16:09;97539.00;;;8.54;36.80
20930;BME280;21895;47.072;15.132;2024-01-27T01:18:36;97539.00;;;8.72;36.12
20930;BME280;21895;47.072;15.132;2024-01-27T01:21:03;97548.00;;;8.53;35.82
20930;BME280;21895;47.072;15.132;2024-01-27T01:23:29;97540.00;;;8.66;35.07
20930;BME280;21895;47.072;15.132;2024-01-27T01:25:56;97533.00;;;8.67;34.97
20930;BME280;21895;47.072;15.132;2024-01-27T01:28:23;97536.00;;;8.67;36.10
20930;BME280;21895;47.072;15.132;2024-01-27T01:30:49;97543.00;;;8.45;36.65
20930;BME280;21895;47.072;15.132;2024-01-27T01:33:16;97541.00;;;8.44;36.89
20930;BME280;21895;47.072;15.132;2024-01-27T01:35:43;97542.00;;;8.23;36.83
20930;BME280;21895;47.072;15.132;2024-01-27T01:38:10;97547.00;;;8.16;36.56
20930;BME280;21895;47.072;15.132;2024-01-27T01:40:37;97546.00;;;8.09;36.31
20930;BME280;21895;47.072;15.132;2024-01-27T01:43:11;97550.00;;;8.10;35.71
20930;BME280;21895;47.072;15.132;2024-01-27T01:45:38;97559.00;;;8.15;36.77
20930;BME280;21895;47.072;15.132;2024-01-27T01:48:07;97563.00;;;8.13;37.89
20930;BME280;21895;47.072;15.132;2024-01-27T01:50:34;97567.00;;;7.80;38.78
20930;BME280;21895;47.072;15.132;2024-01-27T01:53:01;97557.00;;;7.54;37.78
20930;BME280;21895;47.072;15.132;2024-01-27T01:55:28;97555.00;;;7.63;37.36
20930;BME280;21895;47.072;15.132;2024-01-27T01:57:54;97555.00;;;7.70;37.85
20930;BME280;21895;47.072;15.132;2024-01-27T02:00:21;97561.00;;;7.46;38.89
20930;BME280;21895;47.072;15.132;2024-01-27T02:02:48;97569.00;;;7.16;39.64
20930;BME280;21895;47.072;15.132;2024-01-27T02:05:15;97576.00;;;7.02;39.02
20930;BME280;21895;47.072;15.132;2024-01-27T02:07:42;97574.00;;;6.60;44.13
20930;BME280;21895;47.072;15.132;2024-01-27T02:10:16;97564.00;;;6.35;43.60
20930;BME280;21895;47.072;15.132;2024-01-27T02:12:46;97568.00;;;6.04;43.73
20930;BME280;21895;47.072;15.132;2024-01-27T02:15:13;97554.00;;;6.00;42.24
20930;BME280;21895;47.072;15.132;2024-01-27T02:17:41;97560.00;;;5.67;43.89
20930;BME280;21895;47.072;15.132;2024-01-27T02:20:09;97572.00;;;5.86;42.25
20930;BME280;21895;47.072;15.132;2024-01-27T02:22:36;97568.00;;;5.58;45.52
20930;BME280;21895;47.072;15.132;2024-01-27T02:25:06;97574.00;;;5.30;46.92
20930;BME280;21895;47.072;15.132;2024-01-27T02:27:33;97562.00;;;4.90;47.03
20930;BME280;21895;47.072;15.132;2024-01-27T02:29:59;97562.00;;;4.56;46.90
20930;BME280;21895;47.072;15.132;2024-01-27T02:32:26;97572.00;;;4.44;46.91
20930;BME280;21895;47.072;15.132;2024-01-27T02:34:55;97561.00;;;4.32;48.85
20930;BME280;21895;47.072;15.132;2024-01-27T02:37:22;97558.00;;;4.16;50.34
20930;BME280;21895;47.072;15.132;2024-01-27T02:39:48;97564.00;;;4.13;49.75
20930;BME280;21895;47.072;15.132;2024-01-27T02:42:15;97563.00;;;4.06;48.81
20930;BME280;21895;47.072;15.132;2024-01-27T02:44:41;97566.00;;;4.23;47.76
20930;BME280;21895;47.072;15.132;2024-01-27T02:47:08;97554.00;;;4.85;42.58
20930;BME280;21895;47.072;15.132;2024-01-27T02:49:35;97564.00;;;5.14;43.59
20930;BME280;21895;47.072;15.132;2024-01-27T02:52:02;97548.00;;;5.31;44.45
20930;BME280;21895;47.072;15.132;2024-01-27T02:54:28;97563.00;;;5.25;42.69
20930;BME280;21895;47.072;15.132;2024-01-27T02:56:55;97553.00;;;5.53;42.23
20930;BME280;21895;47.072;15.132;2024-01-27T02:59:22;97553.00;;;6.58;36.35
20930;BME280;21895;47.072;15.132;2024-01-27T03:01:48;97553.00;;;6.94;37.96
20930;BME280;21895;47.072;15.132;2024-01-27T03:04:15;97562.00;;;7.31;35.88
20930;BME280;21895;47.072;15.132;2024-01-27T03:06:41;97547.00;;;7.35;36.44
20930;BME280;21895;47.072;15.132;2024-01-27T03:09:08;97549.00;;;7.17;36.99
20930;BME280;21895;47.072;15.132;2024-01-27T03:11:36;97546.00;;;7.33;36.16
20930;BME280;21895;47.072;15.132;2024-01-27T03:14:03;97543.00;;;7.34;35.30
20930;BME280;21895;47.072;15.132;2024-01-27T03:16:30;97550.00;;;7.65;34.92
20930;BME280;21895;47.072;15.132;2024-01-27T03:18:56;97542.00;;;7.73;34.19
20930;BME280;21895;47.072;15.132;2024-01-27T03:21:23;97556.00;;;7.84;34.66
20930;BME280;21895;47.072;15.132;2024-01-27T03:23:50;97558.00;;;8.13;33.62
20930;BME280;21895;47.072;15.132;2024-01-27T03:26:16;97555.00;;;8.24;34.09
20930;BME280;21895;47.072;15.132;2024-01-27T03:28:43;97539.00;;;8.28;33.68
20930;BME280;21895;47.072;15.132;2024-01-27T03:31:10;97549.00;;;8.39;33.08
20930;BME280;21895;47.072;15.132;2024-01-27T03:33:36;97565.00;;;8.37;33.37
20930;BME280;21895;47.072;15.132;2024-01-27T03:36:09;97562.00;;;8.65;32.94
20930;BME280;21895;47.072;15.132;2024-01-27T03:38:36;97560.00;;;8.54;33.21
20930;BME280;21895;47.072;15.132;2024-01-27T03:41:04;97575.00;;;8.45;34.40
20930;BME280;21895;47.072;15.132;2024-01-27T03:43:31;97571.00;;;8.54;33.46
20930;BME280;21895;47.072;15.132;2024-01-27T03:45:58;97580.00;;;8.59;33.42
20930;BME280;21895;47.072;15.132;2024-01-27T03:48:25;97577.00;;;8.44;34.23
20930;BME280;21895;47.072;15.132;2024-01-27T03:50:55;97580.00;;;8.20;35.48
20930;BME280;21895;47.072;15.132;2024-01-27T03:53:21;97590.00;;;8.16;34.86
20930;BME280;21895;47.072;15.132;2024-01-27T03:55:48;97583.00;;;8.15;35.32
20930;BME280;21895;47.072;15.132;2024-01-27T03:58:15;97583.00;;;8.09;34.91
20930;BME280;21895;47.072;15.132;2024-01-27T04:00:41;97578.00;;;8.24;34.71
20930;BME280;21895;47.072;15.132;2024-01-27T04:03:12;97581.00;;;8.14;34.71
20930;BME280;21895;47.072;15.132;2024-01-27T04:05:38;97594.00;;;8.16;34.33
20930;BME280;21895;47.072;15.132;2024-01-27T04:08:06;97586.00;;;8.37;34.12
20930;BME280;21895;47.072;15.132;2024-01-27T04:10:32;97579.00;;;8.52;33.84
20930;BME280;21895;47.072;15.132;2024-01-27T04:12:59;97583.00;;;8.46;34.11
20930;BME280;21895;47.072;15.132;2024-01-27T04:15:28;97596.00;;;8.30;35.13
20930;BME280;21895;47.072;15.132;2024-01-27T04:17:55;97590.00;;;8.26;35.35
20930;BME280;21895;47.072;15.132;2024-01-27T04:20:22;97592.00;;;8.21;35.62
20930;BME280;21895;47.072;15.132;2024-01-27T04:22:49;97588.00;;;8.23;34.96
20930;BME280;21895;47.072;15.132;2024-01-27T04:25:15;97590.00;;;8.36;34.78
20930;BME280;21895;47.072;15.132;2024-01-27T04:27:42;97592.00;;;8.51;34.41
20930;BME280;21895;47.072;15.132;2024-01-27T04:30:11;97589.00;;;8.47;34.47
20930;BME280;21895;47.072;15.132;2024-01-27T04:32:39;97587.00;;;8.44;34.60
20930;BME280;21895;47.072;15.132;2024-01-27T04:35:09;97590.00;;;8.43;34.57
20930;BME280;21895;47.072;15.132;2024-01-27T04:37:37;97589.00;;;8.45;34.71
20930;BME280;21895;47.072;15.132;2024-01-27T04:40:07;97588.00;;;8.63;34.81
20930;BME280;21895;47.072;15.132;2024-01-27T04:42:34;97583.00;;;8.28;35.65
20930;BME280;21895;47.072;15.132;2024-01-27T04:45:01;97584.00;;;8.11;36.15
20930;BME280;21895;47.072;15.132;2024-01-27T04:47:28;97594.00;;;8.32;35.08
20930;BME280;21895;47.072;15.132;2024-01-27T04:49:55;97594.00;;;8.52;34.50
20930;BME280;21895;47.072;15.132;2024-01-27T04:52:21;97605.00;;;8.55;34.48
20930;BME280;21895;47.072;15.132;2024-01-27T04:54:48;97595.00;;;8.62;34.08
20930;BME280;21895;47.072;15.132;2024-01-27T04:57:15;97606.00;;;8.46;35.36
20930;BME280;21895;47.072;15.132;2024-01-27T04:59:42;97611.00;;;8.33;35.41
20930;BME280;21895;47.072;15.132;2024-01-27T05:02:08;97627.00;;;8.47;35.01
20930;BME280;21895;47.072;15.132;2024-01-27T05:04:37;97616.00;;;8.26;35.70
20930;BME280;21895;47.072;15.132;2024-01-27T05:07:04;97625.00;;;8.03;36.58
20930;BME280;21895;47.072;15.132;2024-01-27T05:09:33;97630.00;;;7.67;37.63
20930;BME280;21895;47.072;15.132;2024-01-27T05:12:00;97627.00;;;7.45;38.08
20930;BME280;21895;47.072;15.132;2024-01-27T05:14:27;97637.00;;;7.27;37.68
20930;BME280;21895;47.072;15.132;2024-01-27T05:16:54;97635.00;;;7.24;38.48
20930;BME280;21895;47.072;15.132;2024-01-27T05:19:21;97630.00;;;7.46;37.10
20930;BME280;21895;47.072;15.132;2024-01-27T05:21:48;97639.00;;;7.49;37.05
20930;BME280;21895;47.072;15.132;2024-01-27T05:24:15;97641.00;;;7.61;37.19
20930;BME280;21895;47.072;15.132;2024-01-27T05:26:41;97659.00;;;7.63;37.95
20930;BME280;21895;47.072;15.132;2024-01-27T05:29:08;97648.00;;;7.53;37.79
20930;BME280;21895;47.072;15.132;2024-01-27T05:31:35;97653.00;;;7.51;37.22
20930;BME280;21895;47.072;15.132;2024-01-27T05:34:01;97657.00;;;7.52;36.73
20930;BME280;21895;47.072;15.132;2024-01-27T05:36:28;97670.00;;;7.87;35.79
20930;BME280;21895;47.072;15.132;2024-01-27T05:38:55;97666.00;;;8.09;36.82
20930;BME280;21895;47.072;15.132;2024-01-27T05:41:26;97673.00;;;7.95;36.70
20930;BME280;21895;47.072;15.132;2024-01-27T05:43:55;97685.00;;;8.07;35.81
20930;BME280;21895;47.072;15.132;2024-01-27T05:46:24;97692.00;;;8.14;35.42
20930;BME280;21895;47.072;15.132;2024-01-27T05:48:51;97689.00;;;8.31;35.10
20930;BME280;21895;47.072;15.132;2024-01-27T05:51:21;97708.00;;;8.39;34.53
20930;BME280;21895;47.072;15.132;2024-01-27T05:53:49;97714.00;;;8.45;34.92
20930;BME280;21895;47.072;15.132;2024-01-27T05:56:16;97721.00;;;8.45;34.68
20930;BME280;21895;47.072;15.132;2024-01-27T05:58:47;97701.00;;;8.29;35.30
20930;BME280;21895;47.072;15.132;2024-01-27T06:01:14;97727.00;;;8.19;35.65
20930;BME280;21895;47.072;15.132;2024-01-27T06:03:44;97716.00;;;8.33;34.80
20930;BME280;21895;47.072;15.132;2024-01-27T06:06:11;97737.00;;;8.35;34.76
20930;BME280;21895;47.072;15.132;2024-01-27T06:08:37;97732.00;;;8.37;35.19
20930;BME280;21895;47.072;15.132;2024-01-27T06:11:04;97735.00;;;8.53;34.29
20930;BME280;21895;47.072;15.132;2024-01-27T06:13:35;97748.00;;;8.35;34.78
20930;BME280;21895;47.072;15.132;2024-01-27T06:16:07;97751.00;;;8.30;35.39
20930;BME280;21895;47.072;15.132;2024-01-27T06:18:37;97759.00;;;8.49;33.71
20930;BME280;21895;47.072;15.132;2024-01-27T06:21:06;97751.00;;;8.81;33.51
20930;BME280;21895;47.072;15.132;2024-01-27T06:23:33;97761.00;;;8.69;33.82
20930;BME280;21895;47.072;15.132;2024-01-27T06:26:05;97764.00;;;8.39;34.60
20930;BME280;21895;47.072;15.132;2024-01-27T06:28:31;97758.00;;;8.25;34.90
20930;BME280;21895;47.072;15.132;2024-01-27T06:30:58;97757.00;;;8.31;34.99
20930;BME280;21895;47.072;15.132;2024-01-27T06:33:24;97760.00;;;8.42;34.62
20930;BME280;21895;47.072;15.132;2024-01-27T06:35:51;97766.00;;;8.48;34.83
20930;BME280;21895;47.072;15.132;2024-01-27T06:38:18;97775.00;;;8.42;34.89
20930;BME280;21895;47.072;15.132;2024-01-27T06:40:44;97779.00;;;8.51;34.74
20930;BME280;21895;47.072;15.132;2024-01-27T06:43:14;97782.00;;;8.37;35.61
20930;BME280;21895;47.072;15.132;2024-01-27T06:45:41;97795.00;;;8.26;37.43
20930;BME280;21895;47.072;15.132;2024-01-27T06:48:07;97793.00;;;7.97;35.13
20930;BME280;21895;47.072;15.132;2024-01-27T06:50:34;97792.00;;;8.23;34.53
20930;BME280;21895;47.072;15.132;2024-01-27T06:53:01;97788.00;;;8.11;36.46
20930;BME280;21895;47.072;15.132;2024-01-27T06:55:28;97799.00;;;7.68;39.90
20930;BME280;21895;47.072;15.132;2024-01-27T06:57:55;97801.00;;;7.28;39.12
20930;BME280;21895;47.072;15.132;2024-01-27T07:00:21;97805.00;;;7.18;39.73
20930;BME280;21895;47.072;15.132;2024-01-27T07:02:48;97805.00;;;7.03;39.34
20930;BME280;21895;47.072;15.132;2024-01-27T07:05:15;97807.00;;;6.81;40.01
20930;BME280;21895;47.072;15.132;2024-01-27T07:07:42;97797.00;;;6.78;39.65
20930;BME280;21895;47.072;15.132;2024-01-27T07:10:09;97801.00;;;6.74;40.11
20930;BME280;21895;47.072;15.132;2024-01-27T07:12:35;97811.00;;;6.85;39.44
20930;BME280;21895;47.072;15.132;2024-01-27T07:15:03;97811.00;;;7.00;39.58
20930;BME280;21895;47.072;15.132;2024-01-27T07:17:30;97815.00;;;7.28;38.64
20930;BME280;21895;47.072;15.132;2024-01-27T07:19:56;97816.00;;;7.56;37.79
20930;BME280;21895;47.072;15.132;2024-01-27T07:22:23;97809.00;;;7.58;37.98
20930;BME280;21895;47.072;15.132;2024-01-27T07:24:50;97806.00;;;7.90;37.44
20930;BME280;21895;47.072;15.132;2024-01-27T07:27:18;97819.00;;;8.02;37.38
20930;BME280;21895;47.072;15.132;2024-01-27T07:29:45;97827.00;;;8.06;38.00
20930;BME280;21895;47.072;15.132;2024-01-27T07:32:11;97825.00;;;8.14;37.68
20930;BME280;21895;47.072;15.132;2024-01-27T07:34:45;97833.00;;;8.42;36.96
20930;BME280;21895;47.072;15.132;2024-01-27T07:37:12;97829.00;;;8.66;36.13
20930;BME280;21895;47.072;15.132;2024-01-27T07:39:38;97837.00;;;8.77;36.29
20930;BME280;21895;47.072;15.132;2024-01-27T07:42:06;97835.00;;;8.84;35.11
20930;BME280;21895;47.072;15.132;2024-01-27T07:44:32;97840.00;;;8.89;35.80
20930;BME280;21895;47.072;15.132;2024-01-27T07:46:59;97841.00;;;8.86;35.70
20930;BME280;21895;47.072;15.132;2024-01-27T07:49:26;97851.00;;;8.76;35.93
20930;BME280;21895;47.072;15.132;2024-01-27T07:51:52;97843.00;;;8.84;35.04
20930;BME280;21895;47.072;15.132;2024-01-27T07:54:20;97849.00;;;8.96;35.42
20930;BME280;21895;47.072;15.132;2024-01-27T07:56:46;97859.00;;;9.12;34.92
20930;BME280;21895;47.072;15.132;2024-01-27T07:59:13;97851.00;;;9.22;34.74
20930;BME280;21895;47.072;15.132;2024-01-27T08:01:43;97862.00;;;8.99;34.86
20930;BME280;21895;47.072;15.132;2024-01-27T08:04:10;97861.00;;;9.02;35.10
20930;BME280;21895;47.072;15.132;2024-01-27T08:06:50;97859.00;;;9.06;34.18
20930;BME280;21895;47.072;15.132;2024-01-27T08:09:18;97869.00;;;8.87;34.55
20930;BME280;21895;47.072;15.132;2024-01-27T08:11:44;97880.00;;;8.94;34.58
20930;BME280;21895;47.072;15.132;2024-01-27T08:14:11;97876.00;;;9.11;33.83
20930;BME280;21895;47.072;15.132;2024-01-27T08:16:38;97882.00;;;9.03;33.80
20930;BME280;21895;47.072;15.132;2024-01-27T08:19:04;97884.00;;;9.15;34.43
20930;BME280;21895;47.072;15.132;2024-01-27T08:21:31;97881.00;;;9.16;34.72
20930;BME280;21895;47.072;15.132;2024-01-27T08:23:58;97885.00;;;9.22;34.04
20930;BME280;21895;47.072;15.132;2024-01-27T08:26:25;97892.00;;;9.24;33.86
20930;BME280;21895;47.072;15.132;2024-01-27T08:28:52;97884.00;;;9.28;34.36
20930;BME280;21895;47.072;15.132;2024-01-27T08:31:20;97888.00;;;9.32;33.53
20930;BME280;21895;47.072;15.132;2024-01-27T08:33:47;97882.00;;;9.45;33.11
20930;BME280;21895;47.072;15.132;2024-01-27T08:36:14;97892.00;;;9.68;32.58
20930;BME280;21895;47.072;15.132;2024-01-27T08:38:41;97893.00;;;9.58;33.26
20930;BME280;21895;47.072;15.132;2024-01-27T08:41:08;97899.00;;;9.32;33.43
20930;BME280;21895;47.072;15.132;2024-01-27T08:43:34;97898.00;;;9.33;33.16
20930;BME280;21895;47.072;15.132;2024-01-27T08:46:01;97894.00;;;9.35;33.14
20930;BME280;21895;47.072;15.132;2024-01-27T08:48:27;97906.00;;;9.42;33.25
20930;BME280;21895;47.072;15.132;2024-01-27T08:50:54;97909.00;;;9.53;32.81
20930;BME280;21895;47.072;15.132;2024-01-27T08:53:21;97894.00;;;9.67;33.62
20930;BME280;21895;47.072;15.132;2024-01-27T08:55:48;97902.00;;;9.70;33.47
20930;BME280;21895;47.072;15.132;2024-01-27T08:58:14;97913.00;;;9.85;33.41
20930;BME280;21895;47.072;15.132;2024-01-27T09:00:41;97913.00;;;9.85;33.15
20930;BME280;21895;47.072;15.132;2024-01-27T09:03:08;97912.00;;;9.83;31.62
20930;BME280;21895;47.072;15.132;2024-01-27T09:05:34;97918.00;;;9.97;31.57
20930;BME280;21895;47.072;15.132;2024-01-27T09:08:01;97932.00;;;9.90;31.40
20930;BME280;21895;47.072;15.132;2024-01-27T09:10:27;97933.00;;;9.86;30.99
20930;BME280;21895;47.072;15.132;2024-01-27T09:12:55;97928.00;;;9.88;30.10
20930;BME280;21895;47.072;15.132;2024-01-27T09:15:21;97936.00;;;9.95;29.75
20930;BME280;21895;47.072;15.132;2024-01-27T09:17:48;97938.00;;;9.92;29.92
20930;BME280;21895;47.072;15.132;2024-01-27T09:20:15;97931.00;;;9.90;29.24
20930;BME280;21895;47.072;15.132;2024-01-27T09:22:42;97949.00;;;10.09;29.67
20930;BME280;21895;47.072;15.132;2024-01-27T09:25:09;97935.00;;;10.12;29.74
20930;BME280;21895;47.072;15.132;2024-01-27T09:27:35;97934.00;;;10.19;29.11
20930;BME280;21895;47.072;15.132;2024-01-27T09:30:03;97954.00;;;9.73;29.38
20930;BME280;21895;47.072;15.132;2024-01-27T09:32:31;97955.00;;;9.52;30.01
20930;BME280;21895;47.072;15.132;2024-01-27T09:34:58;97954.00;;;9.45;30.10
20930;BME280;21895;47.072;15.132;2024-01-27T09:37:24;97966.00;;;9.36;30.22
20930;BME280;21895;47.072;15.132;2024-01-27T09:39:55;97965.00;;;9.30;29.98
20930;BME280;21895;47.072;15.132;2024-01-27T09:42:22;97979.00;;;9.37;29.41
20930;BME280;21895;47.072;15.132;2024-01-27T09:44:49;97964.00;;;9.47;29.72
20930;BME280;21895;47.072;15.132;2024-01-27T09:47:18;97970.00;;;9.60;29.90
20930;BME280;21895;47.072;15.132;2024-01-27T09:49:47;97983.00;;;9.55;28.69
20930;BME280;21895;47.072;15.132;2024-01-27T09:52:14;97971.00;;;9.50;28.21
20930;BME280;21895;47.072;15.132;2024-01-27T09:54:41;97966.00;;;9.56;27.48
20930;BME280;21895;47.072;15.132;2024-01-27T09:57:10;97976.00;;;9.57;28.08
20930;BME280;21895;47.072;15.132;2024-01-27T09:59:41;97989.00;;;9.57;28.08
20930;BME280;21895;47.072;15.132;2024-01-27T10:02:12;97975.00;;;9.84;28.45
20930;BME280;21895;47.072;15.132;2024-01-27T10:04:47;97963.00;;;9.78;26.69
20930;BME280;21895;47.072;15.132;2024-01-27T10:07:14;97965.00;;;9.83;26.97
20930;BME280;21895;47.072;15.132;2024-01-27T10:09:41;97961.00;;;9.93;27.26
20930;BME280;21895;47.072;15.132;2024-01-27T10:12:12;97955.00;;;9.83;27.47
20930;BME280;21895;47.072;15.132;2024-01-27T10:14:40;97963.00;;;9.95;27.31
20930;BME280;21895;47.072;15.132;2024-01-27T10:17:11;97992.00;;;10.03;26.22
20930;BME280;21895;47.072;15.132;2024-01-27T10:19:38;97958.00;;;9.93;26.52
20930;BME280;21895;47.072;15.132;2024-01-27T10:22:10;97970.00;;;10.24;27.65
20930;BME280;21895;47.072;15.132;2024-01-27T10:24:37;97984.00;;;10.38;26.83
20930;BME280;21895;47.072;15.132;2024-01-27T10:27:05;97995.00;;;10.23;26.29
20930;BME280;21895;47.072;15.132;2024-01-27T10:29:32;97978.00;;;10.36;26.12
20930;BME280;21895;47.072;15.132;2024-01-27T10:32:11;97968.00;;;10.48;26.63
20930;BME280;21895;47.072;15.132;2024-01-27T10:34:38;97972.00;;;10.68;26.52
20930;BME280;21895;47.072;15.132;2024-01-27T10:37:05;97975.00;;;10.49;25.24
20930;BME280;21895;47.072;15.132;2024-01-27T10:39:32;97987.00;;;10.56;25.27
20930;BME280;21895;47.072;15.132;2024-01-27T10:42:02;97980.00;;;10.50;25.67
20930;BME280;21895;47.072;15.132;2024-01-27T10:44:30;97982.00;;;10.86;26.17
20930;BME280;21895;47.072;15.132;2024-01-27T10:47:01;97971.00;;;10.70;24.75
20930;BME280;21895;47.072;15.132;2024-01-27T10:49:31;97972.00;;;10.48;26.09
20930;BME280;21895;47.072;15.132;2024-01-27T10:52:06;97969.00;;;10.73;24.89
20930;BME280;21895;47.072;15.132;2024-01-27T10:54:38;97970.00;;;10.83;25.34
20930;BME280;21895;47.072;15.132;2024-01-27T10:57:09;97982.00;;;11.06;25.23
20930;BME280;21895;47.072;15.132;2024-01-27T10:59:39;97967.00;;;10.70;25.63
20930;BME280;21895;47.072;15.132;2024-01-27T11:02:12;97982.00;;;10.46;24.93
20930;BME280;21895;47.072;15.132;2024-01-27T11:04:42;97992.00;;;10.31;25.57
20930;BME280;21895;47.072;15.132;2024-01-27T11:07:09;97973.00;;;10.23;25.10
20930;BME280;21895;47.072;15.132;2024-01-27T11:09:37;97968.00;;;10.36;25.01
20930;BME280;21895;47.072;15.132;2024-01-27T11:12:06;97962.00;;;10.74;25.08
20930;BME280;21895;47.072;15.132;2024-01-27T11:14:34;97974.00;;;10.76;25.02
20930;BME280;21895;47.072;15.132;2024-01-27T11:17:01;97979.00;;;10.64;24.26
20930;BME280;21895;47.072;15.132;2024-01-27T11:19:28;97977.00;;;10.66;24.30
20930;BME280;21895;47.072;15.132;2024-01-27T11:22:04;97975.00;;;10.30;24.29
20930;BME280;21895;47.072;15.132;2024-01-27T11:24:30;97988.00;;;10.24;24.82
20930;BME280;21895;47.072;15.132;2024-01-27T11:27:04;97984.00;;;10.37;24.31
20930;BME280;21895;47.072;15.132;2024-01-27T11:29:32;97978.00;;;10.37;24.26
20930;BME280;21895;47.072;15.132;2024-01-27T11:32:02;97988.00;;;10.45;24.70
20930;BME280;21895;47.072;15.132;2024-01-27T11:34:41;97980.00;;;10.47;24.89
20930;BME280;21895;47.072;15.132;2024-01-27T11:37:16;97999.00;;;10.53;25.35
20930;BME280;21895;47.072;15.132;2024-01-27T11:39:43;97996.00;;;10.63;24.86
20930;BME280;21895;47.072;15.132;2024-01-27T11:42:12;97999.00;;;10.65;24.78
20930;BME280;21895;47.072;15.132;2024-01-27T11:44:41;97985.00;;;10.79;24.59
20930;BME280;21895;47.072;15.132;2024-01-27T11:47:18;98000.00;;;11.04;24.21
20930;BME280;21895;47.072;15.132;2024-01-27T11:49:53;97991.00;;;11.03;23.83
20930;BME280;21895;47.072;15.132;2024-01-27T11:52:21;98004.00;;;11.13;23.75
20930;BME280;21895;47.072;15.132;2024-01-27T11:54:58;97982.00;;;11.13;24.12
20930;BME280;21895;47.072;15.132;2024-01-27T11:57:26;98000.00;;;10.90;23.19
20930;BME280;21895;47.072;15.132;2024-01-27T11:59:54;98005.00;;;10.83;23.64
20930;BME280;21895;47.072;15.132;2024-01-27T12:02:22;98013.00;;;10.65;24.26
20930;BME280;21895;47.072;15.132;2024-01-27T12:04:50;98008.00;;;10.87;23.72
20930;BME280;21895;47.072;15.132;2024-01-27T12:07:16;98008.00;;;10.79;23.59
20930;BME280;21895;47.072;15.132;2024-01-27T12:09:49;97995.00;;;10.70;23.77
20930;BME280;21895;47.072;15.132;2024-01-27T12:12:16;97995.00;;;10.81;24.31
20930;BME280;21895;47.072;15.132;2024-01-27T12:14:48;98005.00;;;11.04;23.95
20930;BME280;21895;47.072;15.132;2024-01-27T12:17:15;98001.00;;;10.97;23.08
20930;BME280;21895;47.072;15.132;2024-01-27T12:19:49;98005.00;;;11.22;24.07
20930;BME280;21895;47.072;15.132;2024-01-27T12:22:49;98004.00;;;11.49;23.39
20930;BME280;21895;47.072;15.132;2024-01-27T12:25:21;98002.00;;;11.16;23.33
20930;BME280;21895;47.072;15.132;2024-01-27T12:27:48;98015.00;;;11.13;24.17
20930;BME280;21895;47.072;15.132;2024-01-27T12:30:15;98002.00;;;11.10;24.08
20930;BME280;21895;47.072;15.132;2024-01-27T12:32:42;97997.00;;;10.93;23.94
20930;BME280;21895;47.072;15.132;2024-01-27T12:35:09;98000.00;;;11.08;24.31
20930;BME280;21895;47.072;15.132;2024-01-27T12:37:36;98007.00;;;11.05;23.35
20930;BME280;21895;47.072;15.132;2024-01-27T12:40:20;98000.00;;;10.90;23.61
20930;BME280;21895;47.072;15.132;2024-01-27T12:42:50;98010.00;;;10.58;23.35
20930;BME280;21895;47.072;15.132;2024-01-27T12:45:17;98008.00;;;10.57;23.67
20930;BME280;21895;47.072;15.132;2024-01-27T12:47:45;98017.00;;;10.78;23.92
20930;BME280;21895;47.072;15.132;2024-01-27T12:50:11;98010.00;;;10.70;23.46
20930;BME280;21895;47.072;15.132;2024-01-27T12:52:39;98010.00;;;10.77;23.80
20930;BME280;21895;47.072;15.132;2024-01-27T12:55:06;97998.00;;;10.89;23.28
20930;BME280;21895;47.072;15.132;2024-01-27T12:57:33;98003.00;;;11.05;23.69
20930;BME280;21895;47.072;15.132;2024-01-27T13:00:00;98001.00;;;10.79;24.11